createdAt,value
2022-12-27T00:02:04.576Z,3.71
2022-12-27T00:04:32.728Z,3.67
2022-12-27T00:07:00.926Z,3.77
2022-12-27T00:09:29.084Z,3.75
2022-12-27T00:11:59.980Z,3.76
2022-12-27T00:14:28.656Z,3.77
2022-12-27T00:16:58.191Z,3.76
2022-12-27T00:19:26.458Z,3.60
2022-12-27T00:21:54.606Z,3.68
2022-12-27T00:24:24.768Z,3.70
2022-12-27T00:26:53.016Z,3.61
2022-12-27T00:29:23.034Z,3.70
2022-12-27T00:31:51.700Z,3.58
2022-12-27T00:34:21.175Z,3.67
2022-12-27T00:36:49.363Z,3.48
2022-12-27T00:39:17.474Z,3.48
2022-12-27T00:41:47.230Z,3.40
2022-12-27T00:44:15.417Z,3.47
2022-12-27T00:46:43.922Z,3.37
2022-12-27T00:49:12.212Z,3.32
2022-12-27T00:51:41.778Z,3.43
2022-12-27T00:54:10.686Z,2.76
2022-12-27T00:56:38.915Z,3.35
2022-12-27T00:59:07.261Z,3.15
2022-12-27T01:01:42.409Z,3.18
2022-12-27T01:04:16.011Z,3.10
2022-12-27T01:06:50.334Z,3.01
2022-12-27T01:09:18.518Z,3.07
2022-12-27T01:11:46.720Z,3.03
2022-12-27T01:14:14.937Z,2.88
2022-12-27T01:16:43.729Z,2.94
2022-12-27T01:19:13.937Z,2.88
2022-12-27T01:21:42.184Z,2.83
2022-12-27T01:24:11.737Z,2.81
2022-12-27T01:26:39.917Z,2.79
2022-12-27T01:29:08.027Z,2.73
2022-12-27T01:31:37.126Z,2.71
2022-12-27T01:34:05.458Z,2.62
2022-12-27T01:36:33.616Z,2.68
2022-12-27T01:39:02.218Z,2.59
2022-12-27T01:41:52.596Z,2.53
2022-12-27T01:44:51.152Z,2.62
2022-12-27T01:47:27.477Z,2.48
2022-12-27T01:50:06.859Z,2.56
2022-12-27T01:52:43.001Z,2.39
2022-12-27T01:55:21.406Z,2.51
2022-12-27T01:57:54.376Z,2.32
2022-12-27T02:00:23.095Z,1.06
2022-12-27T02:02:54.066Z,2.26
2022-12-27T02:05:25.404Z,2.31
2022-12-27T02:08:14.461Z,2.14
2022-12-27T02:10:46.470Z,2.27
2022-12-27T02:13:19.685Z,2.13
2022-12-27T02:15:47.958Z,2.21
2022-12-27T02:18:16.631Z,2.08
2022-12-27T02:21:38.559Z,2.21
2022-12-27T02:24:41.573Z,2.01
2022-12-27T02:27:32.588Z,2.05
2022-12-27T02:30:05.289Z,2.04
2022-12-27T02:32:41.449Z,1.95
2022-12-27T02:35:14.975Z,2.04
2022-12-27T02:37:47.929Z,1.89
2022-12-27T02:40:37.673Z,1.78
2022-12-27T02:43:24.622Z,1.80
2022-12-27T02:46:21.692Z,1.73
2022-12-27T02:49:13.185Z,1.64
2022-12-27T02:52:16.739Z,1.68
2022-12-27T02:55:06.143Z,1.80
2022-12-27T02:57:43.689Z,1.74
2022-12-27T03:00:34.142Z,1.69
2022-12-27T03:03:44.206Z,1.06
2022-12-27T03:06:42.154Z,1.89
2022-12-27T03:10:03.672Z,1.75
2022-12-27T03:13:04.264Z,1.74
2022-12-27T03:15:57.573Z,1.52
2022-12-27T03:19:04.551Z,1.64
2022-12-27T03:21:53.486Z,1.53
2022-12-27T03:24:43.766Z,1.47
2022-12-27T03:27:18.309Z,1.55
2022-12-27T03:30:10.975Z,1.47
2022-12-27T03:33:04.327Z,1.31
2022-12-27T03:35:40.092Z,1.34
2022-12-27T03:38:11.874Z,1.47
2022-12-27T03:41:09.360Z,1.42
2022-12-27T03:43:39.734Z,1.53
2022-12-27T03:46:35.893Z,1.59
2022-12-27T03:49:22.426Z,0.85
2022-12-27T03:51:58.783Z,1.48
2022-12-27T03:54:31.007Z,1.51
2022-12-27T03:57:02.462Z,1.48
2022-12-27T03:59:30.808Z,1.40
2022-12-27T04:01:59.461Z,1.34
2022-12-27T04:04:27.711Z,1.20
2022-12-27T04:06:57.462Z,1.07
2022-12-27T04:09:43.241Z,0.94
2022-12-27T04:12:29.250Z,0.91
2022-12-27T04:15:15.231Z,0.85
2022-12-27T04:18:01.388Z,-1.35
2022-12-27T04:20:47.324Z,0.77
2022-12-27T04:23:34.521Z,0.50
2022-12-27T04:26:20.825Z,0.47
2022-12-27T04:29:06.801Z,0.46
2022-12-27T04:31:52.784Z,0.53
2022-12-27T04:34:38.555Z,0.19
2022-12-27T04:37:08.057Z,0.34
2022-12-27T04:39:37.997Z,0.27
2022-12-27T04:42:24.180Z,0.26
2022-12-27T04:45:14.914Z,0.30
2022-12-27T04:48:01.129Z,0.40
2022-12-27T04:50:50.598Z,0.27
2022-12-27T04:53:53.802Z,0.24
2022-12-27T04:56:23.421Z,0.22
2022-12-27T04:59:05.508Z,0.23
2022-12-27T05:01:51.785Z,0.31
2022-12-27T05:04:34.601Z,0.12
2022-12-27T05:07:23.722Z,0.14
2022-12-27T05:10:09.863Z,0.18
2022-12-27T05:12:56.848Z,0.11
2022-12-27T05:15:25.157Z,0.17
2022-12-27T05:17:53.352Z,0.30
2022-12-27T05:20:21.502Z,0.13
2022-12-27T05:23:18.797Z,0.16
2022-12-27T05:25:48.280Z,0.22
2022-12-27T05:28:17.812Z,0.26
2022-12-27T05:30:46.018Z,0.32
2022-12-27T05:33:14.281Z,0.18
2022-12-27T05:35:42.841Z,0.26
2022-12-27T05:38:11.058Z,0.43
2022-12-27T05:40:39.250Z,0.39
2022-12-27T05:43:07.458Z,-0.13
2022-12-27T05:45:36.983Z,0.58
2022-12-27T05:48:06.205Z,0.54
2022-12-27T05:50:34.422Z,0.57
2022-12-27T05:53:11.715Z,0.55
2022-12-27T05:55:40.134Z,0.46
2022-12-27T05:58:08.462Z,0.45
2022-12-27T06:00:37.976Z,0.34
2022-12-27T06:03:06.260Z,0.45
2022-12-27T06:05:34.555Z,0.40
2022-12-27T06:08:02.761Z,0.38
2022-12-27T06:10:30.991Z,0.39
2022-12-27T06:13:01.395Z,0.35
2022-12-27T06:15:31.570Z,0.27
2022-12-27T06:18:03.630Z,-0.32
2022-12-27T06:20:32.163Z,0.19
2022-12-27T06:23:01.140Z,0.16
2022-12-27T06:25:29.399Z,0.14
2022-12-27T06:27:57.559Z,0.07
2022-12-27T06:30:25.752Z,0.19
2022-12-27T06:32:53.925Z,0.08
2022-12-27T06:35:23.466Z,0.15
2022-12-27T06:37:51.671Z,0.07
2022-12-27T06:40:21.966Z,0.10
2022-12-27T06:42:50.184Z,0.08
2022-12-27T06:45:18.512Z,0.13
2022-12-27T06:47:46.757Z,0.20
2022-12-27T06:50:14.956Z,0.35
2022-12-27T06:52:44.536Z,0.20
2022-12-27T06:55:12.714Z,0.33
2022-12-27T06:57:40.921Z,0.38
2022-12-27T07:00:13.361Z,0.38
2022-12-27T07:02:42.103Z,0.42
2022-12-27T07:05:15.929Z,0.43
2022-12-27T07:07:45.468Z,0.37
2022-12-27T07:10:13.692Z,0.40
2022-12-27T07:12:41.874Z,0.44
2022-12-27T07:15:10.800Z,0.46
2022-12-27T07:17:39.290Z,0.61
2022-12-27T07:20:09.511Z,0.82
2022-12-27T07:22:37.719Z,0.75
2022-12-27T07:25:10.656Z,0.71
2022-12-27T07:27:40.123Z,0.62
2022-12-27T07:30:11.319Z,0.47
2022-12-27T07:32:39.464Z,0.37
2022-12-27T07:35:08.379Z,0.48
2022-12-27T07:37:38.257Z,0.36
2022-12-27T07:40:08.354Z,0.20
2022-12-27T07:42:37.888Z,0.18
2022-12-27T07:45:07.183Z,0.23
2022-12-27T07:47:35.576Z,0.09
2022-12-27T07:50:11.031Z,0.02
2022-12-27T07:52:39.644Z,0.14
2022-12-27T07:55:08.585Z,0.13
2022-12-27T07:57:38.131Z,0.15
2022-12-27T08:00:08.228Z,0.25
2022-12-27T08:02:39.949Z,0.21
2022-12-27T08:05:08.895Z,0.27
2022-12-27T08:07:38.929Z,0.29
2022-12-27T08:10:09.343Z,0.33
2022-12-27T08:12:38.901Z,0.48
2022-12-27T08:15:08.304Z,0.62
2022-12-27T08:17:36.483Z,0.77
2022-12-27T08:20:05.611Z,0.92
2022-12-27T08:22:33.789Z,0.96
2022-12-27T08:25:02.171Z,0.96
2022-12-27T08:27:30.401Z,1.31
2022-12-27T08:30:00.039Z,1.16
2022-12-27T08:32:28.441Z,1.36
2022-12-27T08:35:11.823Z,1.36
2022-12-27T08:37:44.730Z,1.52
2022-12-27T08:40:13.222Z,1.60
2022-12-27T08:42:41.404Z,1.63
2022-12-27T08:45:15.356Z,1.80
2022-12-27T08:47:43.853Z,1.98
2022-12-27T08:50:12.191Z,1.95
2022-12-27T08:52:40.381Z,1.87
2022-12-27T08:55:09.577Z,1.85
2022-12-27T08:57:38.995Z,1.90
2022-12-27T09:00:11.371Z,2.28
2022-12-27T09:02:39.676Z,2.33
2022-12-27T09:05:08.833Z,2.37
2022-12-27T09:07:41.004Z,2.56
2022-12-27T09:10:10.631Z,2.44
2022-12-27T09:12:38.927Z,2.60
2022-12-27T09:15:10.616Z,2.73
2022-12-27T09:17:39.146Z,2.68
2022-12-27T09:20:09.247Z,2.70
2022-12-27T09:22:37.728Z,2.63
2022-12-27T09:25:07.433Z,2.63
2022-12-27T09:27:36.895Z,2.68
2022-12-27T09:30:07.780Z,2.76
2022-12-27T09:32:37.540Z,2.84
2022-12-27T09:35:06.805Z,2.93
2022-12-27T09:37:35.012Z,2.84
2022-12-27T09:40:03.239Z,2.95
2022-12-27T09:42:56.168Z,2.95
2022-12-27T09:45:39.132Z,3.02
2022-12-27T09:48:15.721Z,3.15
2022-12-27T09:50:51.905Z,3.23
2022-12-27T09:53:26.082Z,3.28
2022-12-27T09:55:57.912Z,3.25
2022-12-27T09:58:40.506Z,3.32
2022-12-27T10:01:28.288Z,3.37
2022-12-27T10:03:58.685Z,3.40
2022-12-27T10:06:55.172Z,3.43
2022-12-27T10:09:39.804Z,3.51
2022-12-27T10:12:31.644Z,3.70
2022-12-27T10:15:15.647Z,3.72
2022-12-27T10:17:58.289Z,3.85
2022-12-27T10:20:48.199Z,3.81
2022-12-27T10:23:21.574Z,3.78
2022-12-27T10:25:53.289Z,3.65
2022-12-27T10:28:28.263Z,4.09
2022-12-27T10:30:57.211Z,4.03
2022-12-27T10:33:29.873Z,4.22
2022-12-27T10:36:00.068Z,4.36
2022-12-27T10:38:34.899Z,4.25
2022-12-27T10:41:21.247Z,4.39
2022-12-27T10:43:54.171Z,4.54
2022-12-27T10:46:30.660Z,4.62
2022-12-27T10:51:54.742Z,4.74
2022-12-27T10:54:26.259Z,4.75
2022-12-27T10:56:55.737Z,4.72
2022-12-27T10:59:26.549Z,4.60
2022-12-27T11:02:22.387Z,4.84
2022-12-27T11:04:59.931Z,4.51
2022-12-27T11:07:33.650Z,4.62
2022-12-27T11:10:18.098Z,4.67
2022-12-27T11:13:01.957Z,4.75
2022-12-27T11:15:33.514Z,4.62
2022-12-27T11:18:05.674Z,4.71
2022-12-27T11:20:38.917Z,4.74
2022-12-27T11:23:16.457Z,4.64
2022-12-27T11:25:54.348Z,3.80
2022-12-27T11:28:30.516Z,4.68
2022-12-27T11:31:04.258Z,4.57
2022-12-27T11:33:37.538Z,4.70
2022-12-27T11:36:07.688Z,4.66
2022-12-27T11:38:39.223Z,4.83
2022-12-27T11:41:10.748Z,4.76
2022-12-27T11:43:46.924Z,4.74
2022-12-27T11:46:25.547Z,4.73
2022-12-27T11:48:58.554Z,4.83
2022-12-27T11:52:19.112Z,5.01
2022-12-27T11:55:10.185Z,4.98
2022-12-27T11:58:15.147Z,5.01
2022-12-27T12:00:55.634Z,5.17
2022-12-27T12:04:08.651Z,5.17
2022-12-27T12:06:47.048Z,5.39
2022-12-27T12:09:36.337Z,5.24
2022-12-27T12:12:39.658Z,5.41
2022-12-27T12:15:35.069Z,5.70
2022-12-27T12:18:21.954Z,5.76
2022-12-27T12:21:31.125Z,5.75
2022-12-27T12:24:40.169Z,5.90
2022-12-27T12:27:31.597Z,5.71
2022-12-27T12:30:34.439Z,5.39
2022-12-27T12:33:35.348Z,5.94
2022-12-27T12:36:28.233Z,5.60
2022-12-27T12:39:04.760Z,5.55
2022-12-27T12:41:57.236Z,5.57
2022-12-27T12:45:18.602Z,5.42
2022-12-27T12:48:31.988Z,5.18
2022-12-27T12:51:18.344Z,4.94
2022-12-27T12:54:01.631Z,5.22
2022-12-27T12:57:06.990Z,5.25
2022-12-27T13:00:08.777Z,5.32
2022-12-27T13:03:18.813Z,5.51
2022-12-27T13:06:01.282Z,5.14
2022-12-27T13:08:36.857Z,5.11
2022-12-27T13:11:33.757Z,5.03
2022-12-27T13:14:22.973Z,5.14
2022-12-27T13:16:58.219Z,4.92
2022-12-27T13:19:47.965Z,4.99
2022-12-27T13:22:22.982Z,4.98
2022-12-27T13:25:11.392Z,4.96
2022-12-27T13:27:50.555Z,4.94
2022-12-27T13:30:22.822Z,4.98
2022-12-27T13:33:20.698Z,4.88
2022-12-27T13:36:07.990Z,4.86
2022-12-27T13:38:54.948Z,4.71
2022-12-27T13:41:39.327Z,4.69
2022-12-27T13:44:33.821Z,4.72
2022-12-27T13:47:26.765Z,4.51
2022-12-27T13:50:30.643Z,4.90
2022-12-27T13:53:39.139Z,4.65
2022-12-27T13:56:52.083Z,5.02
2022-12-27T13:59:53.755Z,4.97
2022-12-27T14:03:11.800Z,4.80
2022-12-27T14:06:23.771Z,4.78
2022-12-27T14:09:13.307Z,4.91
2022-12-27T14:12:11.645Z,5.04
2022-12-27T14:14:43.155Z,4.98
2022-12-27T14:17:28.759Z,5.01
2022-12-27T14:20:17.498Z,5.15
2022-12-27T14:23:27.061Z,5.01
2022-12-27T14:26:35.582Z,4.38
2022-12-27T14:30:04.410Z,5.67
2022-12-27T14:33:27.605Z,5.67
2022-12-27T14:36:35.274Z,6.28
2022-12-27T14:40:08.888Z,7.04
2022-12-27T14:43:54.359Z,7.37
2022-12-27T14:46:54.854Z,7.74
2022-12-27T14:50:15.023Z,7.52
2022-12-27T14:53:30.323Z,6.83
2022-12-27T14:56:12.731Z,6.49
2022-12-27T14:58:56.960Z,5.23
2022-12-27T15:01:41.145Z,5.71
2022-12-27T15:04:44.287Z,5.60
2022-12-27T15:08:01.536Z,5.47
2022-12-27T15:10:55.735Z,4.99
2022-12-27T15:13:39.757Z,5.18
2022-12-27T15:16:17.712Z,5.26
2022-12-27T15:19:05.791Z,5.06
2022-12-27T15:21:56.078Z,5.11
2022-12-27T15:24:42.652Z,5.06
2022-12-27T15:27:22.052Z,4.99
2022-12-27T15:30:12.278Z,4.81
2022-12-27T15:32:54.072Z,4.63
2022-12-27T15:35:44.580Z,4.56
2022-12-27T15:38:15.875Z,4.59
2022-12-27T15:41:25.774Z,4.41
2022-12-27T15:44:30.250Z,4.51
2022-12-27T15:47:37.958Z,4.36
2022-12-27T15:50:36.135Z,4.39
2022-12-27T15:53:20.991Z,4.19
2022-12-27T15:56:23.893Z,4.27
2022-12-27T15:59:37.255Z,4.19
2022-12-27T16:02:30.045Z,4.12
2022-12-27T16:05:05.566Z,4.08
2022-12-27T16:07:45.784Z,3.96
2022-12-27T16:10:48.062Z,3.78
2022-12-27T16:13:39.473Z,3.86
2022-12-27T16:16:53.502Z,3.74
2022-12-27T16:20:17.612Z,3.69
2022-12-27T16:22:54.036Z,3.65
2022-12-27T16:25:33.525Z,3.61
2022-12-27T16:28:07.609Z,3.73
2022-12-27T16:30:41.596Z,3.71
2022-12-27T16:33:37.648Z,3.77
2022-12-27T16:36:16.966Z,3.72
2022-12-27T16:38:58.713Z,3.57
2022-12-27T16:41:49.287Z,3.53
2022-12-27T16:44:30.729Z,3.63
2022-12-27T16:47:13.189Z,3.65
2022-12-27T16:49:58.733Z,3.44
2022-12-27T16:53:08.864Z,3.53
2022-12-27T16:56:01.730Z,3.13
2022-12-27T16:58:54.520Z,3.49
2022-12-27T17:01:59.565Z,3.32
2022-12-27T17:05:01.019Z,3.30
2022-12-27T17:08:16.395Z,3.19
2022-12-27T17:11:05.343Z,3.19
2022-12-27T17:13:42.098Z,3.23
2022-12-27T17:16:21.793Z,3.09
2022-12-27T17:18:54.757Z,3.00
2022-12-27T17:21:30.309Z,2.97
2022-12-27T17:24:02.584Z,2.96
2022-12-27T17:27:04.349Z,2.97
2022-12-27T17:30:01.380Z,2.94
2022-12-27T17:33:05.401Z,2.72
2022-12-27T17:35:49.195Z,2.63
2022-12-27T17:38:33.452Z,2.69
2022-12-27T17:41:15.915Z,2.67
2022-12-27T17:44:13.632Z,2.24
2022-12-27T17:46:51.977Z,2.36
2022-12-27T17:49:27.743Z,2.19
2022-12-27T17:52:15.107Z,2.08
2022-12-27T17:55:01.145Z,2.11
2022-12-27T17:57:47.122Z,2.15
2022-12-27T18:00:26.631Z,1.98
2022-12-27T18:02:56.296Z,2.01
2022-12-27T18:05:29.039Z,1.86
2022-12-27T18:08:03.769Z,1.81
2022-12-27T18:10:34.305Z,1.80
2022-12-27T18:13:05.814Z,1.66
2022-12-27T18:15:38.041Z,1.55
2022-12-27T18:18:08.817Z,1.56
2022-12-27T18:20:40.566Z,1.55
2022-12-27T18:23:17.900Z,1.51
2022-12-27T18:26:02.901Z,1.50
2022-12-27T18:28:34.092Z,1.50
2022-12-27T18:31:13.088Z,1.43
2022-12-27T18:33:44.167Z,1.54
2022-12-27T18:36:20.949Z,0.68
2022-12-27T18:38:57.950Z,1.45
2022-12-27T18:41:27.160Z,1.37
2022-12-27T18:44:01.337Z,1.35
2022-12-27T18:46:33.577Z,0.98
2022-12-27T18:49:02.167Z,1.15
2022-12-27T18:51:33.175Z,1.06
2022-12-27T18:54:02.233Z,1.11
2022-12-27T18:56:32.979Z,1.02
2022-12-27T18:59:13.074Z,0.90
2022-12-27T19:01:45.782Z,0.85
2022-12-27T19:04:25.630Z,0.88
2022-12-27T19:07:06.504Z,0.74
2022-12-27T19:09:39.141Z,0.68
2022-12-27T19:12:22.008Z,0.95
2022-12-27T19:14:50.848Z,0.82
2022-12-27T19:17:23.646Z,0.67
2022-12-27T19:19:56.135Z,0.66
2022-12-27T19:22:37.393Z,0.93
2022-12-27T19:25:20.692Z,0.73
2022-12-27T19:27:59.765Z,0.60
2022-12-27T19:30:37.941Z,0.59
2022-12-27T19:33:14.427Z,0.63
2022-12-27T19:35:44.171Z,0.39
2022-12-27T19:38:20.608Z,0.45
2022-12-27T19:40:56.643Z,0.47
2022-12-27T19:43:29.468Z,0.40
2022-12-27T19:45:57.896Z,0.43
2022-12-27T19:48:27.648Z,0.26
2022-12-27T19:50:56.204Z,0.25
2022-12-27T19:53:32.456Z,0.22
2022-12-27T19:56:03.379Z,0.26
2022-12-27T19:58:32.072Z,0.29
2022-12-27T20:01:01.286Z,-0.79
2022-12-27T20:03:30.948Z,0.03
2022-12-27T20:06:15.825Z,0.12
2022-12-27T20:08:51.586Z,0.15
2022-12-27T20:11:22.583Z,0.09
2022-12-27T20:13:51.695Z,-0.23
2022-12-27T20:16:21.205Z,0.13
2022-12-27T20:18:51.150Z,0.15
2022-12-27T20:21:21.276Z,0.06
2022-12-27T20:23:50.246Z,0.03
2022-12-27T20:26:21.924Z,0.00
2022-12-27T20:28:50.710Z,-0.06
2022-12-27T20:31:21.660Z,-0.47
2022-12-27T20:33:55.148Z,-0.14
2022-12-27T20:36:24.067Z,-0.92
2022-12-27T20:38:52.358Z,-0.12
2022-12-27T20:41:22.953Z,-0.09
2022-12-27T20:43:56.320Z,-0.17
2022-12-27T20:46:25.359Z,-0.19
2022-12-27T20:48:57.065Z,-0.19
2022-12-27T20:51:28.238Z,-0.26
2022-12-27T20:53:57.846Z,-0.41
2022-12-27T20:56:26.628Z,-0.31
2022-12-27T20:58:55.014Z,-0.44
2022-12-27T21:01:26.389Z,-0.38
2022-12-27T21:03:57.345Z,-0.45
2022-12-27T21:06:28.679Z,-0.38
2022-12-27T21:08:58.143Z,-0.32
2022-12-27T21:11:31.307Z,-0.39
2022-12-27T21:14:01.311Z,-0.49
2022-12-27T21:16:31.687Z,-0.47
2022-12-27T21:19:03.382Z,-0.54
2022-12-27T21:21:33.156Z,-0.49
2022-12-27T21:24:01.578Z,-0.54
2022-12-27T21:26:32.486Z,-0.01
2022-12-27T21:29:02.795Z,-0.56
2022-12-27T21:31:31.320Z,-0.73
2022-12-27T21:34:01.120Z,-0.66
2022-12-27T21:36:31.546Z,-0.59
2022-12-27T21:38:59.736Z,-0.56
2022-12-27T21:41:30.835Z,-0.39
2022-12-27T21:43:59.066Z,-0.49
2022-12-27T21:46:30.486Z,-0.62
2022-12-27T21:49:03.001Z,-0.62
2022-12-27T21:51:33.225Z,-0.69
2022-12-27T21:54:01.965Z,-0.41
2022-12-27T21:56:30.782Z,-0.58
2022-12-27T21:59:01.827Z,-0.53
2022-12-27T22:01:49.677Z,-0.69
2022-12-27T22:04:22.376Z,-0.63
2022-12-27T22:06:51.128Z,-0.77
2022-12-27T22:09:19.999Z,-0.80
2022-12-27T22:11:48.894Z,-0.68
2022-12-27T22:14:19.636Z,-0.89
2022-12-27T22:16:51.623Z,-0.85
2022-12-27T22:19:21.519Z,-0.79
2022-12-27T22:21:49.800Z,-0.58
2022-12-27T22:24:19.716Z,-0.88
2022-12-27T22:26:50.041Z,-0.76
2022-12-27T22:29:18.749Z,-0.77
2022-12-27T22:31:47.024Z,-0.88
2022-12-27T22:34:15.385Z,-0.82
2022-12-27T22:36:45.032Z,-0.94
2022-12-27T22:39:13.289Z,-1.00
2022-12-27T22:41:41.715Z,-1.10
2022-12-27T22:44:14.653Z,-1.19
2022-12-27T22:47:24.916Z,-1.07
2022-12-27T22:49:31.909Z,-1.26
2022-12-27T22:52:01.635Z,-1.29
2022-12-27T22:55:04.443Z,-1.19
2022-12-27T22:57:18.031Z,-1.21
2022-12-27T22:59:46.265Z,-1.38
2022-12-27T23:02:14.587Z,-1.41
2022-12-27T23:04:42.900Z,-1.45
2022-12-27T23:07:12.483Z,-1.43
2022-12-27T23:09:43.391Z,-1.37
2022-12-27T23:12:12.203Z,-1.39
2022-12-27T23:14:41.725Z,-1.49
2022-12-27T23:17:10.049Z,-1.47
2022-12-27T23:19:38.273Z,-1.44
2022-12-27T23:22:07.424Z,-1.40
2022-12-27T23:24:36.982Z,-1.43
2022-12-27T23:27:05.268Z,-1.40
2022-12-27T23:29:33.431Z,-1.35
2022-12-27T23:32:01.723Z,-1.43
2022-12-27T23:34:30.001Z,-1.40
2022-12-27T23:36:58.617Z,-1.40
2022-12-27T23:39:27.231Z,-1.50
2022-12-27T23:41:57.073Z,-1.45
2022-12-27T23:44:33.814Z,-1.47
2022-12-27T23:47:05.254Z,-1.54
2022-12-27T23:49:33.852Z,-1.46
2022-12-27T23:52:02.260Z,-1.42
2022-12-27T23:54:38.225Z,-1.48
2022-12-27T23:57:19.894Z,-1.57
2022-12-27T23:59:51.680Z,-1.44
